Time,TemperatureF,DewpointF,PressureIn,WindDirection,WindDirectionDegrees,WindSpeedMPH,WindSpeedGustMPH,Humidity,HourlyPrecipIn,Conditions,Clouds,dailyrainin,SoftwareType,DateUTC
2013-08-09 00:10:00,70.9,69.0,29.95,South,177,0.0,-999.0,94,-99.99,,,0.00,weatherlink.com 1.10,2013-08-09 04:10:00,
2013-08-09 00:25:00,71.1,69.0,29.95,South,176,0.0,-999.0,94,-99.99,,,0.00,weatherlink.com 1.10,2013-08-09 04:25:00,
2013-08-09 00:40:00,70.8,69.0,29.94,South,177,0.0,-999.0,94,-99.99,,,0.00,weatherlink.com 1.10,2013-08-09 04:40:00,
2013-08-09 00:56:00,70.5,69.0,29.94,South,177,0.0,-999.0,94,-99.99,,,0.00,weatherlink.com 1.10,2013-08-09 04:56:00,
2013-08-09 01:11:00,70.7,69.0,29.94,South,177,0.0,-999.0,94,-99.99,,,0.00,weatherlink.com 1.10,2013-08-09 05:11:00,
2013-08-09 01:26:00,70.8,69.0,29.93,South,177,0.0,-999.0,94,-99.99,,,0.00,weatherlink.com 1.10,2013-08-09 05:26:00,
2013-08-09 01:41:00,70.6,69.0,29.92,South,177,0.0,-999.0,94,-99.99,,,0.00,weatherlink.com 1.10,2013-08-09 05:41:00,
2013-08-09 01:56:00,70.8,69.0,29.93,South,177,0.0,-999.0,95,-99.99,,,0.00,weatherlink.com 1.10,2013-08-09 05:56:00,
2013-08-09 02:11:00,71.1,69.0,29.92,South,177,0.0,-999.0,94,-99.99,,,0.00,weatherlink.com 1.10,2013-08-09 06:11:00,
2013-08-09 02:26:00,71.0,69.0,29.91,South,177,2.0,-999.0,94,-99.99,,,0.00,weatherlink.com 1.10,2013-08-09 06:26:00,
2013-08-09 02:41:00,71.0,69.0,29.91,South,177,0.0,-999.0,94,-99.99,,,0.00,weatherlink.com 1.10,2013-08-09 06:41:00,
2013-08-09 02:56:00,71.0,69.0,29.91,South,176,0.0,-999.0,94,-99.99,,,0.00,weatherlink.com 1.10,2013-08-09 06:56:00,
2013-08-09 03:11:00,70.9,69.0,29.91,South,176,0.0,-999.0,94,-99.99,,,0.00,weatherlink.com 1.10,2013-08-09 07:11:00,
2013-08-09 03:26:00,71.0,69.0,29.90,South,176,0.0,-999.0,94,-99.99,,,0.00,weatherlink.com 1.10,2013-08-09 07:26:00,
2013-08-09 03:41:00,70.9,69.0,29.90,South,177,0.0,-999.0,94,-99.99,,,0.00,weatherlink.com 1.10,2013-08-09 07:41:00,
2013-08-09 03:56:00,70.7,69.0,29.90,South,177,0.0,-999.0,94,-99.99,,,0.01,weatherlink.com 1.10,2013-08-09 07:56:00,
2013-08-09 04:11:00,70.6,69.0,29.89,South,180,0.0,-999.0,95,-99.99,,,0.06,weatherlink.com 1.10,2013-08-09 08:11:00,
2013-08-09 04:26:00,70.5,69.0,29.89,South,178,0.0,-999.0,95,-99.99,,,0.06,weatherlink.com 1.10,2013-08-09 08:26:00,
2013-08-09 04:41:00,70.4,69.0,29.89,South,178,0.0,-999.0,96,-99.99,,,0.06,weatherlink.com 1.10,2013-08-09 08:41:00,
2013-08-09 04:56:00,70.3,69.0,29.89,South,178,0.0,-999.0,96,-99.99,,,0.06,weatherlink.com 1.10,2013-08-09 08:56:00,
2013-08-09 05:11:00,70.3,69.0,29.89,South,178,0.0,-999.0,96,-99.99,,,0.06,weatherlink.com 1.10,2013-08-09 09:11:00,
2013-08-09 05:26:00,70.2,69.0,29.88,South,178,0.0,-999.0,96,-99.99,,,0.06,weatherlink.com 1.10,2013-08-09 09:26:00,
2013-08-09 05:41:00,70.2,69.0,29.89,South,178,0.0,-999.0,96,-99.99,,,0.06,weatherlink.com 1.10,2013-08-09 09:41:00,
2013-08-09 05:56:00,70.1,69.0,29.89,South,178,2.0,-999.0,96,-99.99,,,0.06,weatherlink.com 1.10,2013-08-09 09:56:00,
2013-08-09 06:11:00,70.2,69.0,29.88,South,178,0.0,-999.0,96,-99.99,,,0.06,weatherlink.com 1.10,2013-08-09 10:11:00,
2013-08-09 06:26:00,70.4,70.0,29.88,South,178,0.0,-999.0,97,-99.99,,,0.06,weatherlink.com 1.10,2013-08-09 10:26:00,
2013-08-09 06:41:00,70.5,69.0,29.88,South,178,0.0,-999.0,96,-99.99,,,0.06,weatherlink.com 1.10,2013-08-09 10:41:00,
2013-08-09 06:56:00,70.4,69.0,29.88,South,178,0.0,-999.0,96,-99.99,,,0.06,weatherlink.com 1.10,2013-08-09 10:56:00,
2013-08-09 07:11:00,70.4,70.0,29.89,South,178,0.0,-999.0,97,-99.99,,,0.06,weatherlink.com 1.10,2013-08-09 11:11:00,
2013-08-09 07:26:00,70.5,70.0,29.90,South,178,0.0,-999.0,97,-99.99,,,0.07,weatherlink.com 1.10,2013-08-09 11:26:00,
2013-08-09 07:41:00,70.7,70.0,29.90,South,175,0.0,-999.0,97,-99.99,,,0.08,weatherlink.com 1.10,2013-08-09 11:41:00,
2013-08-09 07:56:00,70.8,70.0,29.90,South,174,0.0,-999.0,97,-99.99,,,0.08,weatherlink.com 1.10,2013-08-09 11:56:00,
2013-08-09 08:11:00,70.6,70.0,29.89,South,174,5.0,-999.0,97,-99.99,,,0.08,weatherlink.com 1.10,2013-08-09 12:11:00,
2013-08-09 08:26:00,70.7,70.0,29.88,South,174,0.0,-999.0,96,-99.99,,,0.08,weatherlink.com 1.10,2013-08-09 12:26:00,
2013-08-09 08:41:00,70.7,70.0,29.88,South,174,0.0,-999.0,96,-99.99,,,0.08,weatherlink.com 1.10,2013-08-09 12:41:00,
2013-08-09 08:56:00,70.8,70.0,29.87,South,178,4.0,-999.0,96,-99.99,,,0.10,weatherlink.com 1.10,2013-08-09 12:56:00,
2013-08-09 09:11:00,70.9,70.0,29.86,South,180,0.0,-999.0,96,-99.99,,,0.10,weatherlink.com 1.10,2013-08-09 13:11:00,
2013-08-09 09:26:00,70.7,70.0,29.86,South,176,4.0,-999.0,96,-99.99,,,0.12,weatherlink.com 1.10,2013-08-09 13:26:00,
2013-08-09 09:41:00,70.6,70.0,29.86,South,178,5.0,-999.0,96,-99.99,,,0.15,weatherlink.com 1.10,2013-08-09 13:41:00,
2013-08-09 09:56:00,70.4,69.0,29.86,South,177,2.0,-999.0,96,-99.99,,,0.19,weatherlink.com 1.10,2013-08-09 13:56:00,
2013-08-09 10:11:00,70.6,70.0,29.86,South,176,4.0,-999.0,96,-99.99,,,0.22,weatherlink.com 1.10,2013-08-09 14:11:00,
2013-08-09 10:26:00,70.3,69.0,29.85,SE,146,4.0,-999.0,96,-99.99,,,0.24,weatherlink.com 1.10,2013-08-09 14:26:00,
2013-08-09 10:41:00,70.7,70.0,29.84,SSE,165,6.0,-999.0,96,-99.99,,,0.25,weatherlink.com 1.10,2013-08-09 14:41:00,
2013-08-09 10:56:00,70.7,69.0,29.84,SSW,193,8.0,-999.0,95,-99.99,,,0.26,weatherlink.com 1.10,2013-08-09 14:56:00,
2013-08-09 11:11:00,70.5,69.0,29.83,South,175,6.0,-999.0,95,-99.99,,,0.26,weatherlink.com 1.10,2013-08-09 15:11:00,
2013-08-09 11:26:00,70.2,69.0,29.82,South,175,5.0,-999.0,95,-99.99,,,0.27,weatherlink.com 1.10,2013-08-09 15:26:00,
2013-08-09 11:41:00,70.1,69.0,29.82,South,178,4.0,-999.0,95,-99.99,,,0.28,weatherlink.com 1.10,2013-08-09 15:41:00,
2013-08-09 11:56:00,69.9,69.0,29.82,South,172,6.0,-999.0,95,-99.99,,,0.28,weatherlink.com 1.10,2013-08-09 15:56:00,
2013-08-09 12:12:00,69.8,68.0,29.81,South,180,2.0,-999.0,95,-99.99,,,0.28,weatherlink.com 1.10,2013-08-09 16:12:00,
2013-08-09 12:27:00,70.0,69.0,29.81,SSE,165,6.0,-999.0,95,-99.99,,,0.28,weatherlink.com 1.10,2013-08-09 16:27:00,
2013-08-09 12:42:00,70.6,69.0,29.81,South,180,0.0,-999.0,95,-99.99,,,0.28,weatherlink.com 1.10,2013-08-09 16:42:00,
2013-08-09 12:57:00,70.6,69.0,29.80,South,182,0.0,-999.0,95,-99.99,,,0.28,weatherlink.com 1.10,2013-08-09 16:57:00,
2013-08-09 13:12:00,70.7,69.0,29.79,South,178,6.0,-999.0,95,-99.99,,,0.28,weatherlink.com 1.10,2013-08-09 17:12:00,
2013-08-09 13:27:00,70.9,70.0,29.78,South,186,0.0,-999.0,96,-99.99,,,0.28,weatherlink.com 1.10,2013-08-09 17:27:00,
2013-08-09 13:42:00,71.6,70.0,29.78,South,180,0.0,-999.0,96,-99.99,,,0.28,weatherlink.com 1.10,2013-08-09 17:42:00,
2013-08-09 13:57:00,72.0,70.0,29.78,South,179,0.0,-999.0,94,-99.99,,,0.28,weatherlink.com 1.10,2013-08-09 17:57:00,
2013-08-09 14:12:00,72.4,71.0,29.79,SW,219,0.0,-999.0,94,-99.99,,,0.28,weatherlink.com 1.10,2013-08-09 18:12:00,
2013-08-09 14:27:00,70.5,68.0,29.79,SW,226,0.0,-999.0,92,-99.99,,,0.50,weatherlink.com 1.10,2013-08-09 18:27:00,
2013-08-09 14:42:00,69.8,68.0,29.78,SW,218,0.0,-999.0,93,-99.99,,,0.60,weatherlink.com 1.10,2013-08-09 18:42:00,
2013-08-09 14:57:00,69.9,68.0,29.78,SE,142,0.0,-999.0,94,-99.99,,,0.67,weatherlink.com 1.10,2013-08-09 18:57:00,
2013-08-09 15:12:00,70.2,69.0,29.77,SSE,155,4.0,-999.0,94,-99.99,,,0.78,weatherlink.com 1.10,2013-08-09 19:12:00,
2013-08-09 15:27:00,70.1,69.0,29.77,SSE,155,0.0,-999.0,95,-99.99,,,0.79,weatherlink.com 1.10,2013-08-09 19:27:00,
2013-08-09 15:42:00,69.9,69.0,29.76,SSE,155,0.0,-999.0,96,-99.99,,,0.81,weatherlink.com 1.10,2013-08-09 19:42:00,
2013-08-09 15:57:00,70.1,69.0,29.75,SSE,156,0.0,-999.0,96,-99.99,,,0.83,weatherlink.com 1.10,2013-08-09 19:57:00,
2013-08-09 16:12:00,70.8,70.0,29.74,SSE,155,0.0,-999.0,96,-99.99,,,0.83,weatherlink.com 1.10,2013-08-09 20:12:00,
2013-08-09 16:27:00,70.7,70.0,29.73,South,174,0.0,-999.0,96,-99.99,,,0.83,weatherlink.com 1.10,2013-08-09 20:27:00,
2013-08-09 16:42:00,71.0,70.0,29.73,South,174,0.0,-999.0,96,-99.99,,,0.83,weatherlink.com 1.10,2013-08-09 20:42:00,
2013-08-09 16:57:00,71.6,70.0,29.74,NE,34,0.0,-999.0,96,-99.99,,,0.83,weatherlink.com 1.10,2013-08-09 20:57:00,
2013-08-09 17:12:00,71.6,70.0,29.75,North,355,0.0,-999.0,96,-99.99,,,0.83,weatherlink.com 1.10,2013-08-09 21:12:00,
2013-08-09 17:27:00,72.7,72.0,29.74,North,355,0.0,-999.0,96,-99.99,,,0.83,weatherlink.com 1.10,2013-08-09 21:27:00,
2013-08-09 17:42:00,72.1,70.0,29.73,NW,325,0.0,-999.0,94,-99.99,,,0.83,weatherlink.com 1.10,2013-08-09 21:42:00,
2013-08-09 17:57:00,72.4,71.0,29.74,NW,326,0.0,-999.0,94,-99.99,,,0.83,weatherlink.com 1.10,2013-08-09 21:57:00,
2013-08-09 18:12:00,72.8,71.0,29.74,NW,326,0.0,-999.0,93,-99.99,,,0.83,weatherlink.com 1.10,2013-08-09 22:12:00,
2013-08-09 18:27:00,73.1,71.0,29.74,NW,326,0.0,-999.0,92,-99.99,,,0.83,weatherlink.com 1.10,2013-08-09 22:27:00,
2013-08-09 18:42:00,73.4,71.0,29.74,NW,326,0.0,-999.0,91,-99.99,,,0.83,weatherlink.com 1.10,2013-08-09 22:42:00,
2013-08-09 18:57:00,72.9,70.0,29.75,NW,326,0.0,-999.0,91,-99.99,,,0.83,weatherlink.com 1.10,2013-08-09 22:57:00,
2013-08-09 19:12:00,72.4,70.0,29.75,NW,326,0.0,-999.0,92,-99.99,,,0.83,weatherlink.com 1.10,2013-08-09 23:12:00,
2013-08-09 19:27:00,71.9,70.0,29.75,NW,326,0.0,-999.0,92,-99.99,,,0.83,weatherlink.com 1.10,2013-08-09 23:27:00,
2013-08-09 19:42:00,71.7,70.0,29.75,NW,326,0.0,-999.0,93,-99.99,,,0.83,weatherlink.com 1.10,2013-08-09 23:42:00,
2013-08-09 19:57:00,71.2,69.0,29.75,NW,326,0.0,-999.0,93,-99.99,,,0.83,weatherlink.com 1.10,2013-08-09 23:57:00,
2013-08-09 20:12:00,70.5,69.0,29.75,NW,326,0.0,-999.0,94,-99.99,,,0.83,weatherlink.com 1.10,2013-08-10 00:12:00,
2013-08-09 20:27:00,70.2,69.0,29.75,NW,326,0.0,-999.0,95,-99.99,,,0.83,weatherlink.com 1.10,2013-08-10 00:27:00,
2013-08-09 20:42:00,69.9,69.0,29.76,NW,326,0.0,-999.0,95,-99.99,,,0.83,weatherlink.com 1.10,2013-08-10 00:42:00,
2013-08-09 20:57:00,69.4,68.0,29.76,NW,326,0.0,-999.0,95,-99.99,,,0.83,weatherlink.com 1.10,2013-08-10 00:57:00,
2013-08-09 21:12:00,69.2,68.0,29.77,NW,326,0.0,-999.0,96,-99.99,,,0.83,weatherlink.com 1.10,2013-08-10 01:12:00,
2013-08-09 21:27:00,69.4,68.0,29.77,NW,326,0.0,-999.0,96,-99.99,,,0.83,weatherlink.com 1.10,2013-08-10 01:27:00,
2013-08-09 21:42:00,68.6,68.0,29.78,NW,326,0.0,-999.0,96,-99.99,,,0.83,weatherlink.com 1.10,2013-08-10 01:42:00,
2013-08-09 21:57:00,68.5,68.0,29.77,NW,326,0.0,-999.0,97,-99.99,,,0.83,weatherlink.com 1.10,2013-08-10 01:57:00,
2013-08-09 22:12:00,68.3,68.0,29.77,NW,326,0.0,-999.0,97,-99.99,,,0.83,weatherlink.com 1.10,2013-08-10 02:12:00,
2013-08-09 22:27:00,68.2,67.0,29.76,NW,326,0.0,-999.0,97,-99.99,,,0.83,weatherlink.com 1.10,2013-08-10 02:27:00,
2013-08-09 22:42:00,68.0,67.0,29.76,NW,325,1.0,-999.0,97,-99.99,,,0.83,weatherlink.com 1.10,2013-08-10 02:42:00,
2013-08-09 22:57:00,67.9,67.0,29.76,NW,325,0.0,-999.0,97,-99.99,,,0.83,weatherlink.com 1.10,2013-08-10 02:57:00,
2013-08-09 23:12:00,67.0,66.0,29.76,SSW,209,0.0,-999.0,97,-99.99,,,0.83,weatherlink.com 1.10,2013-08-10 03:12:00,
2013-08-09 23:28:00,66.6,66.0,29.77,SSW,207,0.0,-999.0,97,-99.99,,,0.83,weatherlink.com 1.10,2013-08-10 03:28:00,
2013-08-09 23:43:00,66.7,66.0,29.77,SSW,208,0.0,-999.0,97,-99.99,,,0.83,weatherlink.com 1.10,2013-08-10 03:43:00,
2013-08-09 23:58:00,66.8,66.0,29.77,SSW,208,0.0,-999.0,97,-99.99,,,0.83,weatherlink.com 1.10,2013-08-10 03:58:00,